Time;durP1;ratioP1;P1;durP2;ratioP2;P2;SDS_P1;SDS_P2;PMS_P1;PMS_P2;Temp;Humidity;BMP_temperature;BMP_pressure;BME280_temperature;BME280_humidity;BME280_pressure;Samples;Min_cycle;Max_cycle;Signal;HPM_P1;HPM_P2
2022/01/19 00:01:06;;;;;;;17.20;12.10;;;0.80;99.90;;;;;;5025724;28;20522;-90
2022/01/19 00:03:32;;;;;;;23.70;12.65;;;0.70;99.90;;;;;;5037091;28;20183;-89
2022/01/19 00:05:58;;;;;;;22.20;12.07;;;0.70;99.90;;;;;;5020638;28;20245;-89
2022/01/19 00:08:26;;;;;;;27.10;13.30;;;0.70;99.90;;;;;;5039772;28;20442;-90
2022/01/19 00:10:52;;;;;;;24.58;12.43;;;0.70;99.90;;;;;;5022861;28;20835;-90
2022/01/19 00:13:18;;;;;;;24.45;12.80;;;0.60;99.90;;;;;;5018195;28;20171;-90
2022/01/19 00:15:44;;;;;;;28.35;14.02;;;0.60;99.90;;;;;;5036097;28;20224;-90
2022/01/19 00:18:10;;;;;;;21.23;12.73;;;0.60;99.90;;;;;;5018375;28;20183;-89
2022/01/19 00:20:36;;;;;;;22.90;12.87;;;0.60;99.90;;;;;;5018645;28;20916;-89
2022/01/19 00:23:04;;;;;;;24.70;12.15;;;0.50;99.90;;;;;;5018605;28;20453;-90
2022/01/19 00:25:31;;;;;;;22.50;11.40;;;0.50;99.90;;;;;;5018087;28;20288;-90
2022/01/19 00:27:59;;;;;;;25.40;12.13;;;0.50;99.90;;;;;;5018218;28;20202;-90
2022/01/19 00:30:26;;;;;;;26.25;12.95;;;0.50;99.90;;;;;;5018006;28;20207;-88
2022/01/19 00:32:52;;;;;;;30.38;12.82;;;0.50;99.90;;;;;;5035544;28;20171;-90
2022/01/19 00:35:18;;;;;;;32.50;12.80;;;0.50;99.90;;;;;;5018693;28;20199;-89
2022/01/19 00:37:44;;;;;;;21.37;12.43;;;0.50;99.90;;;;;;5017791;28;20479;-89
2022/01/19 00:40:12;;;;;;;28.25;12.52;;;0.40;99.90;;;;;;5017879;28;20233;-91
2022/01/19 00:42:39;;;;;;;30.48;13.52;;;0.40;99.90;;;;;;5035664;28;20253;-90
2022/01/19 00:45:06;;;;;;;27.20;14.13;;;0.40;99.90;;;;;;5018211;28;20256;-89
2022/01/19 00:47:32;;;;;;;28.58;13.77;;;0.40;99.90;;;;;;5035379;28;20246;-88
2022/01/19 00:49:58;;;;;;;30.10;13.35;;;0.40;99.90;;;;;;5035452;28;20640;-89
2022/01/19 00:52:23;;;;;;;26.52;12.60;;;0.30;99.90;;;;;;5017901;28;20216;-89
2022/01/19 00:54:49;;;;;;;24.03;12.90;;;0.30;99.90;;;;;;5017572;28;20206;-89
2022/01/19 00:57:15;;;;;;;30.13;13.70;;;0.30;99.90;;;;;;5017754;28;20174;-90
2022/01/19 00:59:41;;;;;;;26.83;12.80;;;0.30;99.90;;;;;;5035657;28;20829;-90
2022/01/19 01:02:07;;;;;;;29.83;12.70;;;0.30;99.90;;;;;;5018379;28;20502;-90
2022/01/19 01:04:33;;;;;;;29.03;14.00;;;0.30;99.90;;;;;;5034998;28;20558;-89
2022/01/19 01:06:59;;;;;;;26.63;13.55;;;0.20;99.90;;;;;;5031771;28;20240;-90
2022/01/19 01:09:25;;;;;;;23.75;12.63;;;0.20;99.90;;;;;;5038057;28;20182;-88
2022/01/19 01:12:12;;;;;;;28.23;13.77;;;0.20;99.90;;;;;;5017732;28;20541;-89
2022/01/19 01:20:11;;;;;;;27.63;13.77;;;0.20;99.90;;;;;;5036945;28;20229;-88
2022/01/19 01:22:38;;;;;;;28.17;13.98;;;0.10;99.90;;;;;;5021976;28;20174;-90
2022/01/19 01:25:06;;;;;;;29.30;14.20;;;0.20;99.90;;;;;;5033723;28;20309;-90
2022/01/19 01:27:31;;;;;;;28.67;12.98;;;0.10;99.90;;;;;;5035473;28;20659;-88
2022/01/19 01:29:57;;;;;;;27.60;13.53;;;0.10;99.90;;;;;;5035037;28;20205;-90
2022/01/19 01:32:23;;;;;;;23.37;12.90;;;0.10;99.90;;;;;;5017254;28;20182;-88
2022/01/19 01:34:50;;;;;;;27.33;12.43;;;0.10;99.90;;;;;;5017230;28;20422;-88
2022/01/19 01:37:16;;;;;;;25.65;12.93;;;0.10;99.90;;;;;;5017987;28;20190;-88
2022/01/19 01:39:42;;;;;;;22.67;12.23;;;0.00;99.90;;;;;;5034488;28;20652;-88
2022/01/19 01:42:09;;;;;;;22.30;12.97;;;0.00;99.90;;;;;;5017521;28;20179;-89
2022/01/19 01:44:37;;;;;;;29.73;12.68;;;0.00;99.90;;;;;;5017018;28;20177;-90
2022/01/19 01:47:03;;;;;;;23.80;12.45;;;0.00;99.90;;;;;;5017501;28;20222;-90
2022/01/19 01:55:00;;;;;;;24.77;13.15;;;-0.10;99.90;;;;;;5034714;28;20223;-90
2022/01/19 01:57:26;;;;;;;30.55;12.60;;;-0.20;99.90;;;;;;5016884;28;20182;-89
2022/01/19 01:59:52;;;;;;;29.97;12.70;;;-0.20;99.90;;;;;;5025279;28;20210;-88
2022/01/19 02:02:17;;;;;;;25.40;12.73;;;-0.20;99.90;;;;;;5039472;28;20246;-89
2022/01/19 02:04:43;;;;;;;20.47;12.93;;;-0.20;99.90;;;;;;5019586;28;20213;-89
2022/01/19 02:07:39;;;;;;;28.03;13.73;;;-0.30;99.90;;;;;;5033397;28;20989;-88
2022/01/19 02:10:14;;;;;;;22.52;11.88;;;-0.30;99.90;;;;;;5017093;28;20218;-88
2022/01/19 02:23:44;;;;;;;22.23;12.30;;;-0.30;99.90;;;;;;5034661;28;20254;-90
2022/01/19 02:26:16;;;;;;;28.35;12.23;;;-0.30;99.90;;;;;;5033428;28;20317;-89
2022/01/19 02:40:11;;;;;;;26.25;13.05;;;-0.40;99.90;;;;;;5037975;28;20522;-88
2022/01/19 02:42:52;;;;;;;23.23;13.07;;;-0.40;99.90;;;;;;5020101;28;20185;-88
2022/01/19 02:50:31;;;;;;;21.98;12.57;;;-0.50;99.90;;;;;;5037910;28;20221;-88
2022/01/19 02:52:57;;;;;;;22.30;12.43;;;-0.50;99.90;;;;;;5019849;28;20174;-90
2022/01/19 02:55:23;;;;;;;29.40;12.63;;;-0.50;99.90;;;;;;5036667;28;20302;-90
2022/01/19 02:57:49;;;;;;;26.27;12.45;;;-0.50;99.90;;;;;;5038211;28;20915;-90
2022/01/19 03:08:47;;;;;;;27.73;11.93;;;-0.60;99.90;;;;;;5039282;28;20300;-90
2022/01/19 03:11:17;;;;;;;25.10;13.70;;;-0.60;99.90;;;;;;5038339;28;20202;-88
2022/01/19 03:13:45;;;;;;;27.08;13.35;;;-0.60;99.90;;;;;;5020113;28;20186;-88
2022/01/19 03:16:11;;;;;;;24.02;12.90;;;-0.70;99.90;;;;;;5021947;28;20213;-88
2022/01/19 03:18:37;;;;;;;25.30;13.20;;;-0.60;99.90;;;;;;5019519;28;20175;-87
2022/01/19 03:21:04;;;;;;;20.77;13.63;;;-0.60;99.90;;;;;;5019606;28;20553;-90
2022/01/19 03:23:29;;;;;;;31.50;15.18;;;-0.70;99.90;;;;;;5020148;28;20182;-88
2022/01/19 03:25:57;;;;;;;26.97;13.70;;;-0.70;99.90;;;;;;5019722;28;20217;-89
2022/01/19 03:28:23;;;;;;;28.80;12.98;;;-0.70;99.90;;;;;;5019348;28;20202;-89
2022/01/19 03:30:49;;;;;;;27.42;15.73;;;-0.70;99.90;;;;;;5019881;28;20648;-90
2022/01/19 03:33:15;;;;;;;27.55;12.82;;;-0.70;99.90;;;;;;5035463;28;20181;-90
2022/01/19 03:35:41;;;;;;;27.10;13.95;;;-0.80;99.90;;;;;;5021564;28;20207;-89
2022/01/19 03:38:08;;;;;;;24.58;13.82;;;-0.80;99.90;;;;;;5019594;28;20181;-90
2022/01/19 03:40:35;;;;;;;31.88;17.10;;;-0.80;99.90;;;;;;5037091;28;20205;-90
2022/01/19 03:43:02;;;;;;;27.50;15.63;;;-0.80;99.90;;;;;;5019472;28;20179;-90
2022/01/19 03:45:28;;;;;;;26.48;16.77;;;-0.80;99.90;;;;;;5019093;28;20675;-88
2022/01/19 03:48:07;;;;;;;39.35;19.35;;;-0.80;99.90;;;;;;5018855;28;20683;-90
2022/01/19 03:50:34;;;;;;;40.53;19.35;;;-0.90;99.90;;;;;;5018883;28;20206;-88
2022/01/19 03:53:00;;;;;;;37.38;19.88;;;-0.90;99.90;;;;;;5019270;28;20182;-88
2022/01/19 03:55:25;;;;;;;45.58;19.92;;;-0.90;99.90;;;;;;5018998;28;20225;-88
2022/01/19 03:57:51;;;;;;;34.33;20.30;;;-0.90;99.90;;;;;;5018914;28;20178;-90
2022/01/19 04:00:18;;;;;;;32.00;14.90;;;-0.90;99.90;;;;;;5019804;28;20212;-88
2022/01/19 04:02:44;;;;;;;30.75;16.17;;;-0.90;99.90;;;;;;5018910;28;20171;-89
2022/01/19 04:05:20;;;;;;;28.17;13.80;;;-0.90;99.90;;;;;;5018674;28;20210;-89
2022/01/19 04:07:45;;;;;;;35.92;15.23;;;-1.00;99.90;;;;;;5021630;28;20490;-88
2022/01/19 04:10:11;;;;;;;37.33;16.37;;;-1.00;99.90;;;;;;5038542;28;20203;-89
2022/01/19 04:15:09;;;;;;;34.33;15.63;;;-1.00;99.90;;;;;;5043779;28;20207;-88
2022/01/19 04:17:37;;;;;;;21.80;13.10;;;-1.00;99.90;;;;;;5022567;28;20648;-88
2022/01/19 04:20:03;;;;;;;24.17;14.07;;;-1.00;99.90;;;;;;5045301;28;20195;-88
2022/01/19 04:22:29;;;;;;;32.30;15.27;;;-1.00;99.90;;;;;;5021328;28;20181;-89
2022/01/19 04:24:54;;;;;;;22.08;13.50;;;-1.10;99.90;;;;;;5018694;28;20210;-89
2022/01/19 04:30:00;;;;;;;28.52;11.85;;;-1.10;99.90;;;;;;5040588;28;20205;-88
2022/01/19 04:32:38;;;;;;;27.63;11.45;;;-1.10;99.90;;;;;;5019101;28;20174;-89
2022/01/19 04:35:07;;;;;;;24.00;14.00;;;-1.10;99.90;;;;;;5026715;28;20209;-89
2022/01/19 05:04:18;;;;;;;30.67;15.23;;;-1.00;99.90;;;;;;5039918;28;20269;-87
2022/01/19 05:06:48;;;;;;;33.80;15.55;;;-1.00;99.90;;;;;;5024478;28;20280;-89
2022/01/19 05:09:55;;;;;;;33.45;14.95;;;-1.00;99.90;;;;;;5017781;28;20179;-89
2022/01/19 05:14:58;;;;;;;38.58;15.13;;;-1.00;99.90;;;;;;5044267;28;20565;-87
2022/01/19 05:17:24;;;;;;;32.33;15.70;;;-1.00;99.90;;;;;;5036943;28;20258;-88
2022/01/19 05:19:49;;;;;;;32.23;15.10;;;-1.00;99.90;;;;;;5019557;28;20698;-89
2022/01/19 05:22:15;;;;;;;28.67;16.20;;;-1.00;99.90;;;;;;5017252;28;20219;-88
2022/01/19 05:24:41;;;;;;;41.70;19.27;;;-1.00;99.90;;;;;;5017540;28;20202;-89
2022/01/19 05:27:06;;;;;;;126.40;47.97;;;-1.00;99.90;;;;;;5040802;28;20222;-88
2022/01/19 05:29:32;;;;;;;715.60;266.70;;;-1.00;99.90;;;;;;5008570;28;20183;-89
2022/01/19 05:31:58;;;;;;;642.63;242.57;;;-1.10;99.90;;;;;;5004785;28;20417;-89
2022/01/19 05:34:23;;;;;;;112.13;48.23;;;-1.10;99.90;;;;;;5046597;28;20186;-89
2022/01/19 05:36:49;;;;;;;50.87;26.20;;;-1.10;99.90;;;;;;5019595;28;20207;-89
2022/01/19 05:39:15;;;;;;;56.77;27.87;;;-1.10;99.90;;;;;;5015377;28;20178;-89
2022/01/19 05:41:41;;;;;;;123.68;56.63;;;-1.10;99.90;;;;;;5023696;28;20269;-89
2022/01/19 05:44:06;;;;;;;268.47;127.73;;;-1.10;99.90;;;;;;5028562;28;20178;-90
2022/01/19 05:46:34;;;;;;;115.63;56.33;;;-1.20;99.90;;;;;;5012719;28;20233;-89
2022/01/19 05:49:01;;;;;;;44.67;21.45;;;-1.10;99.90;;;;;;5012564;28;20186;-89
2022/01/19 05:51:27;;;;;;;35.90;19.25;;;-1.10;99.90;;;;;;5015137;28;20203;-89
2022/01/19 05:53:53;;;;;;;47.47;20.90;;;-1.00;99.90;;;;;;5017835;28;20299;-89
2022/01/19 05:56:18;;;;;;;48.87;20.80;;;-0.90;99.90;;;;;;5017311;28;20473;-89
2022/01/19 05:58:44;;;;;;;36.23;18.40;;;-0.80;99.90;;;;;;5023943;28;20415;-89
2022/01/19 06:01:10;;;;;;;32.40;16.37;;;-0.70;99.90;;;;;;5020334;28;20206;-89
2022/01/19 06:03:35;;;;;;;40.87;16.97;;;-0.60;99.90;;;;;;5034007;28;20175;-89
2022/01/19 06:06:01;;;;;;;27.33;15.00;;;-0.50;99.90;;;;;;5034047;28;20213;-88
2022/01/19 06:10:55;;;;;;;32.57;17.20;;;-0.40;99.90;;;;;;5034782;28;20207;-89
2022/01/19 06:13:22;;;;;;;33.97;16.90;;;-0.30;99.90;;;;;;5036259;28;20175;-89
2022/01/19 06:15:49;;;;;;;38.08;16.58;;;-0.30;99.90;;;;;;5032613;28;20213;-89
2022/01/19 06:18:16;;;;;;;29.00;16.20;;;-0.30;99.90;;;;;;5022812;28;20178;-89
2022/01/19 06:20:42;;;;;;;39.78;18.50;;;-0.30;99.90;;;;;;5021940;28;20206;-89
2022/01/19 06:23:08;;;;;;;29.23;15.50;;;-0.30;99.90;;;;;;5037665;28;20748;-89
2022/01/19 06:25:35;;;;;;;33.03;16.50;;;-0.40;99.90;;;;;;5029332;28;20226;-90
2022/01/19 06:28:01;;;;;;;35.97;18.92;;;-0.40;99.90;;;;;;5024255;28;20479;-89
2022/01/19 06:30:27;;;;;;;36.70;19.30;;;-0.50;99.90;;;;;;5021984;28;20203;-89
2022/01/19 06:32:53;;;;;;;42.67;22.33;;;-0.60;99.90;;;;;;5020274;28;20185;-89
2022/01/19 06:35:19;;;;;;;62.58;33.63;;;-0.70;99.90;;;;;;5019541;28;20689;-89
2022/01/19 06:37:45;;;;;;;70.50;36.92;;;-0.90;99.90;;;;;;5028320;28;20182;-89
2022/01/19 06:40:13;;;;;;;46.13;30.90;;;-1.00;99.90;;;;;;5020715;28;20218;-89
2022/01/19 06:42:39;;;;;;;45.25;28.58;;;-1.10;99.90;;;;;;5019707;28;20415;-89
2022/01/19 06:45:05;;;;;;;102.10;53.33;;;-1.30;99.90;;;;;;5015190;28;20202;-89
2022/01/19 06:47:34;;;;;;;210.70;93.15;;;-1.30;99.90;;;;;;5036110;28;20558;-89
2022/01/19 06:50:00;;;;;;;44.20;24.88;;;-1.40;99.90;;;;;;5019987;28;20303;-89
2022/01/19 06:52:25;;;;;;;54.47;29.17;;;-1.40;99.90;;;;;;5035997;28;20202;-88
2022/01/19 06:54:51;;;;;;;37.20;22.80;;;-1.40;99.90;;;;;;5039297;28;20479;-89
2022/01/19 06:57:17;;;;;;;38.73;22.37;;;-1.50;99.90;;;;;;5027270;28;20491;-88
2022/01/19 06:59:43;;;;;;;39.00;21.10;;;-1.60;99.90;;;;;;5030261;28;20520;-89
2022/01/19 07:02:10;;;;;;;51.25;33.60;;;-1.50;99.90;;;;;;5024761;28;20182;-89
2022/01/19 07:04:36;;;;;;;43.85;25.33;;;-1.50;99.90;;;;;;5051551;28;20182;-88
2022/01/19 07:07:03;;;;;;;32.70;20.10;;;-1.50;99.90;;;;;;5023945;28;20596;-88
2022/01/19 07:09:29;;;;;;;26.67;14.52;;;-1.50;99.90;;;;;;5032118;28;20183;-89
2022/01/19 07:11:55;;;;;;;28.50;17.00;;;-1.40;99.90;;;;;;5027155;28;20217;-89
2022/01/19 07:14:22;;;;;;;42.70;24.00;;;-1.40;99.90;;;;;;5035274;28;20663;-89
2022/01/19 07:16:47;;;;;;;36.20;20.48;;;-1.40;99.90;;;;;;5026397;28;20191;-89
2022/01/19 07:19:13;;;;;;;33.53;21.47;;;-1.30;99.90;;;;;;5039610;28;20194;-88
2022/01/19 07:21:42;;;;;;;31.87;22.70;;;-1.20;99.90;;;;;;5043034;28;20555;-89
2022/01/19 07:24:08;;;;;;;50.25;25.08;;;-1.00;99.90;;;;;;5017385;28;20424;-88
2022/01/19 07:26:33;;;;;;;30.00;17.60;;;-0.70;99.90;;;;;;5011096;28;20221;-88
2022/01/19 07:28:59;;;;;;;28.53;17.07;;;-0.60;99.90;;;;;;5015637;28;20190;-88
2022/01/19 07:31:33;;;;;;;37.00;21.37;;;-0.40;99.90;;;;;;5014529;28;20298;-89
2022/01/19 07:33:59;;;;;;;71.70;39.47;;;-0.30;99.90;;;;;;5030476;28;20189;-89
2022/01/19 07:36:24;;;;;;;35.13;18.77;;;-0.30;99.90;;;;;;5011557;28;20207;-90
2022/01/19 07:38:50;;;;;;;47.40;23.73;;;-0.20;99.90;;;;;;5010533;28;20237;-88
2022/01/19 07:41:18;;;;;;;53.00;25.90;;;-0.20;99.90;;;;;;5018491;28;20219;-88
2022/01/19 07:43:44;;;;;;;38.50;23.70;;;-0.20;99.90;;;;;;5034975;28;20182;-89
2022/01/19 07:46:09;;;;;;;36.70;21.80;;;-0.10;99.90;;;;;;5024366;28;20214;-88
2022/01/19 07:48:35;;;;;;;34.57;17.27;;;0.00;99.90;;;;;;5028838;28;20183;-88
2022/01/19 07:51:01;;;;;;;26.33;16.50;;;0.40;99.90;;;;;;5016421;28;20230;-88
2022/01/19 07:53:26;;;;;;;37.83;18.10;;;0.80;99.90;;;;;;5016594;28;20277;-89
2022/01/19 07:55:53;;;;;;;30.00;17.20;;;1.20;99.90;;;;;;5033292;28;20199;-88
2022/01/19 07:58:19;;;;;;;32.72;17.52;;;1.50;99.90;;;;;;5007409;28;20175;-88
2022/01/19 08:00:45;;;;;;;30.43;19.90;;;2.00;99.90;;;;;;5022360;28;20572;-88
2022/01/19 08:03:11;;;;;;;44.03;28.23;;;2.50;99.90;;;;;;5011344;28;20863;-88
2022/01/19 08:05:38;;;;;;;45.50;29.15;;;3.10;99.90;;;;;;5017430;28;20205;-88
2022/01/19 08:08:04;;;;;;;76.18;41.42;;;3.60;99.90;;;;;;5035077;28;20236;-88
2022/01/19 08:10:31;;;;;;;37.80;25.00;;;4.10;99.90;;;;;;5025066;28;20206;-89
2022/01/19 08:13:00;;;;;;;40.38;25.73;;;4.70;99.90;;;;;;5017574;28;20408;-89
2022/01/19 08:15:26;;;;;;;26.80;17.17;;;5.50;99.90;;;;;;5021499;28;20209;-89
2022/01/19 08:17:51;;;;;;;24.05;15.35;;;6.40;99.90;;;;;;5017071;28;20178;-89
2022/01/19 08:20:20;;;;;;;36.50;25.07;;;7.00;99.90;;;;;;5017116;28;20747;-89
2022/01/19 08:22:46;;;;;;;41.13;24.17;;;7.70;99.90;;;;;;5016366;28;20401;-89
2022/01/19 08:25:12;;;;;;;45.07;27.00;;;8.20;99.90;;;;;;5023032;28;20206;-89
2022/01/19 08:27:38;;;;;;;254.67;102.90;;;8.50;99.90;;;;;;5022102;28;20450;-89
2022/01/19 08:30:06;;;;;;;36.13;20.75;;;8.80;99.90;;;;;;5029879;28;20222;-88
2022/01/19 08:32:34;;;;;;;27.90;14.52;;;9.00;99.90;;;;;;5030906;28;20261;-89
2022/01/19 08:35:00;;;;;;;240.88;104.90;;;9.20;99.90;;;;;;5013846;28;20213;-88
2022/01/19 08:37:26;;;;;;;83.32;44.53;;;9.30;99.90;;;;;;5032170;28;20189;-89
2022/01/19 08:39:53;;;;;;;62.97;35.05;;;9.60;99.90;;;;;;5027459;28;20217;-89
2022/01/19 08:42:18;;;;;;;34.45;20.92;;;9.80;99.90;;;;;;5020315;28;20450;-89
2022/01/19 08:44:44;;;;;;;51.83;33.03;;;10.20;99.90;;;;;;5014828;28;20303;-89
2022/01/19 08:47:10;;;;;;;34.03;24.67;;;10.50;99.90;;;;;;5013704;28;20534;-89
2022/01/19 08:49:36;;;;;;;35.47;19.80;;;10.90;99.90;;;;;;4996842;28;20273;-89
2022/01/19 08:52:03;;;;;;;26.73;18.13;;;11.20;99.90;;;;;;5005649;28;20206;-89
2022/01/19 08:54:30;;;;;;;79.70;50.33;;;11.40;99.00;;;;;;5021794;28;20254;-90
2022/01/19 08:56:57;;;;;;;43.15;30.23;;;11.50;98.40;;;;;;5031554;28;20194;-89
2022/01/19 08:59:23;;;;;;;21.40;13.75;;;11.70;97.90;;;;;;5028191;28;20642;-90
2022/01/19 09:01:48;;;;;;;22.20;14.03;;;11.90;97.60;;;;;;5040143;28;20186;-89
2022/01/19 09:04:15;;;;;;;15.63;11.97;;;12.00;96.90;;;;;;5016559;28;20232;-89
2022/01/19 09:06:41;;;;;;;17.92;12.77;;;11.90;96.50;;;;;;5010790;28;20241;-89
2022/01/19 09:09:06;;;;;;;20.23;14.80;;;11.90;96.80;;;;;;5030704;28;20205;-88
2022/01/19 09:11:32;;;;;;;17.87;12.20;;;11.90;95.80;;;;;;5027416;28;20285;-89
2022/01/19 09:14:00;;;;;;;17.50;13.07;;;11.70;96.00;;;;;;5047330;28;20178;-89
2022/01/19 09:16:26;;;;;;;17.27;11.52;;;11.60;95.60;;;;;;5026507;28;20455;-89
2022/01/19 09:18:51;;;;;;;19.57;11.80;;;11.50;95.70;;;;;;5031891;28;20673;-89
2022/01/19 09:21:17;;;;;;;17.00;11.20;;;11.20;96.00;;;;;;5034903;28;20241;-87
2022/01/19 09:23:43;;;;;;;16.73;10.03;;;11.00;96.10;;;;;;5034262;28;20174;-90
2022/01/19 09:26:08;;;;;;;16.77;10.23;;;10.90;95.80;;;;;;5014314;28;20305;-90
2022/01/19 09:28:34;;;;;;;14.17;10.27;;;11.10;95.70;;;;;;5021291;28;20221;-89
2022/01/19 09:31:02;;;;;;;16.63;11.83;;;11.40;96.30;;;;;;5012822;28;20206;-89
2022/01/19 09:33:30;;;;;;;19.52;11.88;;;11.80;95.10;;;;;;5016223;28;20178;-89
2022/01/19 09:38:31;;;;;;;19.10;12.27;;;12.30;94.30;;;;;;5047143;28;20171;-89
2022/01/19 09:40:58;;;;;;;21.13;12.77;;;12.40;93.50;;;;;;5016807;28;20214;-89
2022/01/19 09:43:25;;;;;;;32.35;14.25;;;12.20;93.50;;;;;;5033205;28;20221;-88
2022/01/19 09:45:59;;;;;;;21.98;13.73;;;12.00;94.20;;;;;;5021702;28;20258;-89
2022/01/19 09:48:26;;;;;;;19.95;13.43;;;11.90;93.70;;;;;;5018864;28;20187;-89
2022/01/19 09:50:54;;;;;;;19.38;12.90;;;12.10;93.90;;;;;;5029335;28;20217;-89
2022/01/19 09:53:20;;;;;;;32.97;20.83;;;12.40;93.60;;;;;;5016287;28;20185;-89
2022/01/19 09:55:47;;;;;;;50.63;29.92;;;12.60;92.90;;;;;;5014893;28;20234;-89
2022/01/19 09:58:14;;;;;;;62.72;39.30;;;12.70;92.80;;;;;;5025163;28;20182;-88
2022/01/19 10:00:40;;;;;;;112.28;76.28;;;12.80;92.50;;;;;;5032260;28;20206;-89
2022/01/19 10:03:13;;;;;;;20.42;15.05;;;12.80;92.20;;;;;;5024971;28;20183;-89
2022/01/19 10:05:56;;;;;;;21.73;13.02;;;12.90;91.50;;;;;;5041902;28;20675;-89
2022/01/19 10:08:28;;;;;;;126.72;71.40;;;12.60;91.70;;;;;;5032660;28;20708;-89
2022/01/19 10:11:13;;;;;;;49.13;29.80;;;12.20;92.40;;;;;;5015925;28;20602;-88
2022/01/19 10:19:16;;;;;;;23.55;13.93;;;11.50;93.30;;;;;;5028369;28;20244;-89
2022/01/19 10:22:06;;;;;;;20.13;13.43;;;11.00;93.40;;;;;;5028725;28;20179;-89
2022/01/19 10:24:40;;;;;;;20.05;14.35;;;10.80;94.10;;;;;;5029608;28;20282;-89
2022/01/19 10:27:20;;;;;;;27.50;14.55;;;10.50;94.20;;;;;;5021378;28;20211;-89
2022/01/19 10:29:48;;;;;;;21.17;12.73;;;10.20;94.90;;;;;;5014947;28;20206;-90
2022/01/19 10:32:14;;;;;;;24.55;14.80;;;10.00;95.00;;;;;;5014887;28;20241;-90
2022/01/19 10:34:40;;;;;;;25.38;13.43;;;9.80;95.60;;;;;;5020316;28;20213;-88
2022/01/19 10:37:07;;;;;;;18.30;12.60;;;9.40;95.50;;;;;;5033907;28;20553;-90
2022/01/19 10:39:42;;;;;;;29.00;13.07;;;9.20;96.50;;;;;;5018356;28;20589;-89
2022/01/19 10:42:15;;;;;;;26.52;14.20;;;9.00;96.30;;;;;;5018905;28;20193;-88
2022/01/19 10:44:43;;;;;;;30.13;13.10;;;9.00;96.50;;;;;;5013579;28;20245;-89
2022/01/19 10:47:10;;;;;;;23.35;13.25;;;9.10;96.90;;;;;;5016562;28;20218;-89
2022/01/19 10:49:56;;;;;;;19.60;11.93;;;9.10;97.10;;;;;;5029660;28;20682;-89
2022/01/19 10:52:25;;;;;;;21.92;11.95;;;9.00;96.20;;;;;;5015123;28;20182;-89
2022/01/19 10:54:51;;;;;;;18.20;10.55;;;8.60;96.50;;;;;;5025531;28;20203;-90
2022/01/19 10:57:17;;;;;;;28.42;13.13;;;8.50;96.80;;;;;;5020501;28;20174;-89
2022/01/19 10:59:43;;;;;;;20.50;11.85;;;8.30;97.20;;;;;;5031521;28;20634;-89
2022/01/19 11:02:12;;;;;;;22.30;10.67;;;8.20;97.60;;;;;;5026938;28;20174;-89
2022/01/19 11:04:39;;;;;;;26.50;12.18;;;8.20;97.60;;;;;;5019289;28;20198;-89
2022/01/19 11:07:11;;;;;;;27.00;15.32;;;8.00;97.90;;;;;;5014550;28;20233;-89
2022/01/19 11:09:46;;;;;;;21.58;13.25;;;8.00;98.30;;;;;;5014610;28;20206;-89
2022/01/19 11:12:19;;;;;;;29.55;14.93;;;8.00;98.30;;;;;;5010954;28;20186;-89
2022/01/19 11:14:45;;;;;;;18.73;10.73;;;8.00;98.20;;;;;;5029322;28;20206;-89
2022/01/19 11:17:11;;;;;;;18.40;10.70;;;8.00;97.90;;;;;;5010609;28;20302;-89
2022/01/19 11:19:43;;;;;;;17.50;10.73;;;7.90;97.80;;;;;;5021291;28;20302;-89
2022/01/19 11:22:34;;;;;;;38.20;19.00;;;7.90;98.30;;;;;;5020729;28;20179;-88
2022/01/19 11:25:36;;;;;;;44.58;17.20;;;7.80;98.30;;;;;;5019179;28;20203;-89
2022/01/19 11:28:02;;;;;;;22.98;13.07;;;7.60;98.20;;;;;;5039834;28;20272;-89
2022/01/19 11:30:31;;;;;;;91.97;41.60;;;7.40;98.80;;;;;;5021826;28;20214;-89
2022/01/19 11:33:24;;;;;;;28.38;15.60;;;7.30;99.20;;;;;;5028174;28;20182;-89
2022/01/19 11:35:54;;;;;;;18.77;10.32;;;7.20;99.00;;;;;;5004218;28;20226;-89
2022/01/19 11:38:36;;;;;;;59.90;28.98;;;7.20;99.10;;;;;;5009535;28;20327;-89
2022/01/19 11:41:25;;;;;;;44.13;23.55;;;7.10;99.10;;;;;;5013236;28;20301;-89
2022/01/19 11:43:53;;;;;;;29.33;15.68;;;7.10;99.00;;;;;;5035375;28;20193;-89
2022/01/19 11:46:39;;;;;;;17.50;8.75;;;7.00;99.30;;;;;;5019931;28;20207;-89
2022/01/19 11:49:07;;;;;;;19.98;10.38;;;7.10;99.20;;;;;;5011104;28;20227;-90
2022/01/19 11:51:40;;;;;;;21.80;9.55;;;7.20;99.50;;;;;;5032198;28;20205;-89
2022/01/19 11:54:21;;;;;;;36.17;22.50;;;7.30;99.60;;;;;;5008367;28;20186;-89
2022/01/19 11:56:59;;;;;;;47.70;34.25;;;7.40;99.60;;;;;;5033972;28;20217;-89
2022/01/19 11:59:29;;;;;;;25.02;13.57;;;7.50;99.60;;;;;;5028515;28;20636;-89
2022/01/19 12:02:20;;;;;;;20.75;8.88;;;7.50;99.30;;;;;;5005677;28;20191;-89
2022/01/19 12:04:52;;;;;;;14.05;9.25;;;7.60;99.00;;;;;;5029029;28;20226;-89
2022/01/19 12:07:38;;;;;;;16.90;8.90;;;7.60;99.30;;;;;;5010241;28;20309;-89
2022/01/19 12:10:06;;;;;;;17.40;9.10;;;7.60;99.50;;;;;;5012584;28;20210;-89
2022/01/19 12:12:38;;;;;;;15.40;8.60;;;7.50;99.70;;;;;;5003183;28;20174;-89
2022/01/19 12:15:08;;;;;;;17.25;10.43;;;7.60;99.70;;;;;;5015294;28;20702;-89
2022/01/19 12:17:57;;;;;;;17.20;9.38;;;7.70;99.50;;;;;;5014654;28;20640;-89
2022/01/19 12:20:50;;;;;;;11.88;7.97;;;7.80;99.60;;;;;;5010563;28;20210;-89
2022/01/19 12:23:27;;;;;;;26.48;11.07;;;7.80;99.10;;;;;;5016006;28;20210;-89
2022/01/19 12:25:55;;;;;;;16.73;8.73;;;7.80;99.30;;;;;;5019897;28;20233;-88
2022/01/19 12:28:53;;;;;;;12.13;7.68;;;7.90;99.10;;;;;;5009269;28;20218;-89
2022/01/19 12:31:25;;;;;;;16.45;9.50;;;7.80;98.70;;;;;;5014025;28;20242;-89
2022/01/19 12:34:11;;;;;;;16.33;8.30;;;7.80;98.70;;;;;;5010818;28;20179;-88
2022/01/19 12:36:55;;;;;;;12.50;7.25;;;7.80;99.00;;;;;;5041690;28;20206;-88
2022/01/19 12:39:28;;;;;;;14.40;7.43;;;7.80;99.30;;;;;;5019117;28;20225;-88
2022/01/19 12:42:20;;;;;;;12.82;9.10;;;7.80;98.70;;;;;;5028916;28;20281;-89
2022/01/19 12:44:52;;;;;;;13.30;7.43;;;7.80;98.90;;;;;;5010126;28;20202;-88
2022/01/19 12:47:27;;;;;;;17.02;7.53;;;7.80;98.60;;;;;;5008197;28;20302;-88
2022/01/19 12:50:18;;;;;;;12.38;7.95;;;7.80;98.60;;;;;;5007141;28;20221;-89
2022/01/19 12:52:45;;;;;;;54.25;24.98;;;7.70;98.80;;;;;;5037781;28;20256;-89
2022/01/19 12:55:17;;;;;;;23.27;10.45;;;7.70;98.80;;;;;;5012593;28;20572;-89
2022/01/19 12:57:44;;;;;;;30.83;15.00;;;7.70;98.90;;;;;;5006689;28;20682;-89
2022/01/19 13:00:13;;;;;;;14.30;9.05;;;7.70;98.60;;;;;;5025482;28;20211;-89
2022/01/19 13:02:39;;;;;;;16.58;7.82;;;7.60;99.00;;;;;;5013707;28;20636;-88
2022/01/19 13:05:11;;;;;;;13.77;8.00;;;7.50;99.10;;;;;;5002742;28;20261;-89
2022/01/19 13:07:39;;;;;;;15.55;7.57;;;7.50;99.30;;;;;;5016336;28;20237;-87
2022/01/19 13:10:19;;;;;;;15.40;7.75;;;7.50;99.20;;;;;;5000973;28;20301;-88
2022/01/19 13:15:15;;;;;;;12.77;7.07;;;7.60;99.00;;;;;;5017986;28;20221;-89
2022/01/19 13:17:43;;;;;;;23.85;11.75;;;7.70;99.10;;;;;;5014108;28;20178;-88
2022/01/19 13:20:11;;;;;;;29.55;15.27;;;7.70;99.20;;;;;;5028931;28;20216;-89
2022/01/19 13:22:55;;;;;;;24.70;13.18;;;7.70;99.00;;;;;;5015347;28;20277;-88
2022/01/19 13:25:28;;;;;;;28.30;12.68;;;7.70;99.00;;;;;;5011598;28;20205;-88
2022/01/19 13:27:56;;;;;;;77.50;39.03;;;7.70;99.30;;;;;;5012348;28;20205;-88
2022/01/19 13:30:33;;;;;;;25.10;12.52;;;7.70;99.10;;;;;;5020247;28;20238;-88
2022/01/19 13:33:09;;;;;;;14.40;7.25;;;7.70;98.70;;;;;;5012462;28;20207;-88
2022/01/19 13:35:35;;;;;;;19.02;9.30;;;7.70;99.00;;;;;;5024017;28;20193;-89
2022/01/19 13:38:10;;;;;;;21.00;11.05;;;7.70;99.00;;;;;;5012905;28;20382;-88
2022/01/19 13:40:36;;;;;;;12.13;7.82;;;7.80;99.20;;;;;;5012646;28;20712;-89
2022/01/19 13:43:05;;;;;;;19.23;8.88;;;7.90;99.10;;;;;;5024913;28;20170;-89
2022/01/19 13:48:32;;;;;;;20.42;9.45;;;8.10;99.30;;;;;;5030977;28;20213;-88
2022/01/19 13:51:06;;;;;;;16.33;8.32;;;8.10;98.90;;;;;;5013619;28;20249;-89
2022/01/19 13:53:40;;;;;;;17.90;12.23;;;8.20;98.80;;;;;;5036529;28;20265;-89
2022/01/19 13:56:09;;;;;;;15.95;9.82;;;8.20;99.20;;;;;;5012173;28;20285;-89
2022/01/19 13:58:47;;;;;;;13.27;9.57;;;8.40;98.60;;;;;;5004971;28;20190;-89
2022/01/19 14:01:19;;;;;;;17.65;8.73;;;8.50;98.20;;;;;;5006464;28;20509;-89
2022/01/19 14:03:58;;;;;;;16.52;8.35;;;8.60;98.50;;;;;;5015498;28;20236;-89
2022/01/19 14:06:34;;;;;;;17.80;11.32;;;8.80;98.20;;;;;;5015509;28;20253;-90
2022/01/19 14:09:17;;;;;;;18.90;9.80;;;9.00;98.20;;;;;;5011836;28;20182;-90
2022/01/19 14:11:59;;;;;;;39.75;20.38;;;9.30;97.70;;;;;;5035708;28;20281;-89
2022/01/19 14:14:37;;;;;;;99.53;49.22;;;9.60;97.30;;;;;;5013761;28;20163;-90
2022/01/19 14:17:09;;;;;;;122.50;58.58;;;9.90;97.00;;;;;;5013336;28;20170;-90
2022/01/19 14:19:45;;;;;;;64.05;29.02;;;10.10;96.50;;;;;;5036059;28;20229;-90
2022/01/19 14:22:13;;;;;;;81.75;40.53;;;10.30;96.40;;;;;;5030779;28;20190;-89